createdAt,value
2022-11-27T00:01:19.119Z,3.27
2022-11-27T00:03:46.339Z,3.26
2022-11-27T00:06:19.271Z,3.24
2022-11-27T00:08:46.609Z,3.24
2022-11-27T00:11:16.437Z,3.30
2022-11-27T00:13:43.332Z,3.15
2022-11-27T00:16:10.370Z,3.21
2022-11-27T00:18:37.572Z,3.27
2022-11-27T00:21:06.321Z,3.22
2022-11-27T00:23:33.435Z,3.33
2022-11-27T00:25:59.903Z,3.29
2022-11-27T00:28:28.928Z,3.30
2022-11-27T00:31:04.465Z,3.25
2022-11-27T00:33:31.582Z,3.37
2022-11-27T00:36:03.201Z,3.35
2022-11-27T00:38:30.482Z,3.30
2022-11-27T00:41:15.597Z,3.18
2022-11-27T00:43:45.027Z,3.19
2022-11-27T00:46:13.712Z,3.16
2022-11-27T00:48:40.659Z,3.27
2022-11-27T00:51:08.879Z,3.14
2022-11-27T00:53:35.751Z,3.29
2022-11-27T00:56:02.676Z,3.27
2022-11-27T00:58:30.521Z,3.27
2022-11-27T01:00:59.009Z,2.97
2022-11-27T01:03:26.515Z,2.86
2022-11-27T01:05:53.173Z,3.01
2022-11-27T01:08:19.900Z,2.95
2022-11-27T01:10:54.766Z,3.18
2022-11-27T01:13:26.942Z,3.24
2022-11-27T01:16:06.113Z,3.26
2022-11-27T01:18:34.050Z,3.24
2022-11-27T01:21:00.842Z,3.32
2022-11-27T01:23:27.593Z,3.36
2022-11-27T01:25:55.112Z,3.35
2022-11-27T01:28:24.596Z,3.42
2022-11-27T01:30:51.885Z,3.48
2022-11-27T01:33:19.024Z,3.49
2022-11-27T01:36:00.043Z,3.46
2022-11-27T01:38:27.682Z,3.47
2022-11-27T01:40:59.589Z,3.55
2022-11-27T01:43:47.858Z,3.48
2022-11-27T01:46:40.379Z,3.46
2022-11-27T01:49:09.872Z,3.44
2022-11-27T01:51:39.905Z,3.49
2022-11-27T01:54:09.159Z,3.41
2022-11-27T01:56:36.278Z,3.48
2022-11-27T01:59:03.744Z,3.51
2022-11-27T02:01:30.336Z,3.52
2022-11-27T02:03:59.507Z,3.41
2022-11-27T02:06:26.105Z,3.45
2022-11-27T02:08:52.785Z,3.43
2022-11-27T02:11:25.696Z,3.50
2022-11-27T02:14:26.467Z,3.46
2022-11-27T02:17:02.828Z,3.49
2022-11-27T02:20:20.554Z,3.55
2022-11-27T02:22:46.958Z,3.46
2022-11-27T02:25:18.138Z,3.38
2022-11-27T02:28:02.469Z,3.48
2022-11-27T02:30:35.434Z,3.30
2022-11-27T02:33:09.310Z,3.29
2022-11-27T02:35:48.005Z,3.14
2022-11-27T02:38:23.175Z,3.06
2022-11-27T02:40:56.204Z,3.05
2022-11-27T02:43:29.539Z,3.08
2022-11-27T02:45:57.681Z,2.96
2022-11-27T02:48:31.206Z,3.01
2022-11-27T02:50:57.665Z,3.07
2022-11-27T02:53:39.317Z,3.06
2022-11-27T02:56:14.701Z,3.15
2022-11-27T02:58:42.176Z,3.15
2022-11-27T03:01:12.373Z,3.06
2022-11-27T03:03:44.112Z,3.11
2022-11-27T03:06:14.240Z,3.12
2022-11-27T03:08:56.677Z,3.03
2022-11-27T03:11:23.416Z,3.03
2022-11-27T03:13:54.835Z,3.02
2022-11-27T03:17:03.237Z,3.07
2022-11-27T03:19:42.983Z,3.10
2022-11-27T03:22:10.703Z,3.14
2022-11-27T03:24:37.610Z,3.20
2022-11-27T03:27:07.080Z,3.21
2022-11-27T03:29:39.444Z,3.15
2022-11-27T03:32:06.021Z,3.16
2022-11-27T03:34:33.363Z,3.24
2022-11-27T03:37:00.795Z,3.11
2022-11-27T03:39:28.912Z,3.16
2022-11-27T03:42:05.557Z,3.07
2022-11-27T03:44:48.297Z,3.07
2022-11-27T03:47:35.465Z,2.88
2022-11-27T03:50:14.294Z,2.88
2022-11-27T03:52:56.049Z,2.75
2022-11-27T03:55:44.327Z,2.83
2022-11-27T03:58:29.349Z,2.75
2022-11-27T04:01:00.376Z,2.65
2022-11-27T04:03:30.871Z,2.57
2022-11-27T04:05:57.736Z,2.62
2022-11-27T04:08:24.240Z,2.66
2022-11-27T04:10:50.789Z,2.72
2022-11-27T04:13:17.260Z,2.67
2022-11-27T04:15:43.803Z,2.61
2022-11-27T04:18:11.511Z,2.69
2022-11-27T04:20:38.112Z,2.75
2022-11-27T04:23:04.774Z,2.67
2022-11-27T04:25:32.368Z,2.67
2022-11-27T04:27:58.866Z,2.67
2022-11-27T04:30:25.290Z,2.70
2022-11-27T04:32:51.802Z,2.72
2022-11-27T04:35:18.316Z,2.57
2022-11-27T04:37:44.807Z,2.58
2022-11-27T04:40:12.056Z,2.56
2022-11-27T04:42:38.511Z,2.55
2022-11-27T04:45:05.627Z,2.45
2022-11-27T04:47:32.080Z,2.31
2022-11-27T04:49:58.527Z,2.33
2022-11-27T04:52:24.975Z,2.40
2022-11-27T04:54:55.364Z,2.41
2022-11-27T04:57:25.048Z,2.22
2022-11-27T04:59:51.537Z,2.20
2022-11-27T05:02:18.044Z,2.30
2022-11-27T05:04:45.158Z,2.34
2022-11-27T05:07:11.704Z,2.26
2022-11-27T05:09:38.189Z,2.30
2022-11-27T05:12:04.928Z,2.45
2022-11-27T05:14:31.560Z,2.49
2022-11-27T05:16:59.112Z,2.57
2022-11-27T05:19:28.361Z,2.58
2022-11-27T05:21:56.728Z,2.57
2022-11-27T05:24:25.764Z,2.55
2022-11-27T05:26:53.065Z,2.61
2022-11-27T05:29:20.268Z,2.58
2022-11-27T05:31:47.144Z,2.55
2022-11-27T05:34:14.752Z,2.49
2022-11-27T05:36:41.788Z,2.52
2022-11-27T05:39:09.760Z,2.67
2022-11-27T05:41:38.272Z,2.68
2022-11-27T05:44:06.377Z,2.72
2022-11-27T05:46:33.481Z,2.72
2022-11-27T05:49:00.131Z,2.76
2022-11-27T05:51:26.650Z,2.70
2022-11-27T05:53:53.073Z,2.58
2022-11-27T05:56:19.626Z,2.66
2022-11-27T05:58:47.643Z,2.39
2022-11-27T06:01:16.204Z,2.55
2022-11-27T06:03:42.768Z,2.58
2022-11-27T06:06:13.299Z,2.52
2022-11-27T06:08:40.943Z,2.50
2022-11-27T06:11:09.177Z,2.43
2022-11-27T06:13:36.393Z,2.56
2022-11-27T06:16:14.774Z,2.48
2022-11-27T06:18:41.289Z,2.50
2022-11-27T06:21:09.463Z,2.58
2022-11-27T06:23:36.514Z,2.60
2022-11-27T06:26:14.270Z,2.62
2022-11-27T06:28:41.176Z,2.55
2022-11-27T06:31:17.576Z,2.68
2022-11-27T06:33:44.732Z,2.68
2022-11-27T06:36:11.346Z,2.59
2022-11-27T06:38:38.337Z,2.44
2022-11-27T06:41:10.537Z,2.26
2022-11-27T06:43:37.499Z,2.28
2022-11-27T06:46:06.098Z,2.33
2022-11-27T06:48:34.004Z,2.27
2022-11-27T06:51:01.915Z,2.11
2022-11-27T06:53:30.144Z,2.17
2022-11-27T06:55:57.011Z,2.15
2022-11-27T06:58:29.400Z,2.11
2022-11-27T07:00:59.262Z,2.20
2022-11-27T07:03:26.745Z,2.19
2022-11-27T07:05:53.721Z,2.12
2022-11-27T07:08:20.971Z,2.14
2022-11-27T07:10:47.542Z,2.12
2022-11-27T07:13:14.042Z,2.19
2022-11-27T07:15:40.466Z,2.28
2022-11-27T07:18:06.994Z,2.28
2022-11-27T07:20:33.453Z,2.21
2022-11-27T07:23:00.000Z,2.18
2022-11-27T07:25:32.500Z,2.16
2022-11-27T07:27:58.990Z,2.06
2022-11-27T07:30:25.450Z,2.01
2022-11-27T07:32:51.863Z,2.18
2022-11-27T07:35:18.530Z,2.22
2022-11-27T07:37:44.957Z,2.24
2022-11-27T07:40:13.041Z,2.24
2022-11-27T07:42:41.181Z,2.38
2022-11-27T07:45:08.584Z,2.47
2022-11-27T07:47:35.361Z,2.41
2022-11-27T07:50:02.010Z,2.42
2022-11-27T07:52:28.535Z,2.44
2022-11-27T07:54:55.023Z,2.36
2022-11-27T07:57:21.515Z,2.41
2022-11-27T07:59:48.166Z,2.46
2022-11-27T08:02:14.930Z,2.28
2022-11-27T08:04:41.842Z,2.59
2022-11-27T08:07:08.592Z,2.68
2022-11-27T08:09:35.058Z,2.75
2022-11-27T08:12:01.526Z,2.86
2022-11-27T08:14:28.040Z,2.67
2022-11-27T08:16:54.640Z,2.87
2022-11-27T08:19:22.353Z,3.03
2022-11-27T08:21:48.821Z,3.21
2022-11-27T08:24:15.433Z,3.27
2022-11-27T08:26:41.946Z,3.32
2022-11-27T08:29:11.551Z,3.32
2022-11-27T08:31:38.463Z,3.33
2022-11-27T08:34:05.108Z,3.41
2022-11-27T08:36:32.547Z,3.42
2022-11-27T08:38:59.169Z,3.49
2022-11-27T08:41:25.672Z,3.54
2022-11-27T08:43:52.105Z,3.55
2022-11-27T08:46:18.710Z,3.59
2022-11-27T08:48:45.217Z,3.65
2022-11-27T08:51:15.260Z,3.75
2022-11-27T08:53:45.435Z,3.75
2022-11-27T08:56:21.311Z,3.55
2022-11-27T08:58:48.596Z,3.55
2022-11-27T09:01:18.685Z,3.70
2022-11-27T09:03:46.051Z,3.65
2022-11-27T09:06:16.184Z,3.71
2022-11-27T09:08:43.603Z,3.77
2022-11-27T09:11:11.325Z,3.94
2022-11-27T09:13:40.045Z,4.14
2022-11-27T09:16:12.401Z,4.19
2022-11-27T09:18:39.201Z,4.21
2022-11-27T09:21:10.851Z,4.65
2022-11-27T09:23:38.460Z,5.05
2022-11-27T09:26:10.531Z,5.32
2022-11-27T09:28:38.168Z,5.39
2022-11-27T09:31:06.514Z,5.60
2022-11-27T09:33:35.234Z,5.62
2022-11-27T09:36:10.435Z,5.26
2022-11-27T09:38:37.688Z,5.56
2022-11-27T09:41:10.425Z,6.39
2022-11-27T09:43:44.493Z,6.58
2022-11-27T09:46:17.501Z,6.50
2022-11-27T09:48:48.339Z,5.97
2022-11-27T09:51:48.043Z,5.69
2022-11-27T09:54:46.760Z,5.56
2022-11-27T09:57:21.975Z,5.20
2022-11-27T09:59:53.590Z,5.20
2022-11-27T10:02:48.117Z,5.16
2022-11-27T10:05:24.201Z,5.15
2022-11-27T10:08:28.967Z,4.97
2022-11-27T10:11:11.720Z,4.78
2022-11-27T10:14:10.685Z,4.79
2022-11-27T10:16:44.748Z,4.90
2022-11-27T10:19:23.302Z,4.87
2022-11-27T10:21:59.560Z,5.22
2022-11-27T10:24:41.565Z,5.27
2022-11-27T10:27:29.230Z,5.44
2022-11-27T10:29:57.552Z,5.70
2022-11-27T10:32:54.524Z,5.76
2022-11-27T10:35:22.255Z,5.86
2022-11-27T10:38:06.827Z,5.72
2022-11-27T10:40:42.224Z,5.74
2022-11-27T10:43:24.134Z,5.56
2022-11-27T10:46:09.133Z,5.62
2022-11-27T10:48:35.743Z,5.72
2022-11-27T10:51:02.236Z,5.82
2022-11-27T10:53:35.421Z,5.74
2022-11-27T10:56:04.867Z,5.87
2022-11-27T10:58:41.840Z,5.94
2022-11-27T11:01:13.928Z,6.09
2022-11-27T11:03:40.679Z,6.23
2022-11-27T11:06:23.012Z,6.41
2022-11-27T11:09:15.188Z,6.50
2022-11-27T11:11:41.738Z,6.49
2022-11-27T11:14:19.115Z,6.45
2022-11-27T11:16:46.259Z,6.43
2022-11-27T11:19:30.952Z,6.54
2022-11-27T11:21:59.562Z,6.56
2022-11-27T11:24:29.648Z,6.54
2022-11-27T11:27:01.753Z,6.50
2022-11-27T11:29:38.765Z,6.47
2022-11-27T11:32:28.166Z,6.52
2022-11-27T11:35:01.124Z,6.42
2022-11-27T11:37:38.517Z,6.43
2022-11-27T11:40:16.318Z,6.58
2022-11-27T11:42:54.206Z,6.59
2022-11-27T11:45:22.485Z,6.68
2022-11-27T11:47:54.750Z,6.80
2022-11-27T11:51:05.581Z,6.87
2022-11-27T11:53:35.330Z,6.90
2022-11-27T11:56:23.019Z,6.98
2022-11-27T11:59:00.368Z,7.09
2022-11-27T12:01:45.267Z,7.10
2022-11-27T12:04:30.042Z,7.18
2022-11-27T12:07:06.322Z,7.19
2022-11-27T12:10:06.150Z,7.21
2022-11-27T12:12:51.032Z,7.19
2022-11-27T12:15:33.378Z,7.27
2022-11-27T12:18:21.190Z,7.34
2022-11-27T12:21:15.312Z,7.37
2022-11-27T12:24:01.120Z,7.32
2022-11-27T12:26:38.588Z,7.13
2022-11-27T12:29:23.811Z,7.17
2022-11-27T12:31:56.420Z,7.17
2022-11-27T12:34:27.785Z,7.15
2022-11-27T12:37:16.311Z,7.22
2022-11-27T12:40:11.826Z,7.20
2022-11-27T12:42:53.571Z,7.17
2022-11-27T12:45:27.459Z,7.17
2022-11-27T12:47:58.854Z,7.19
2022-11-27T12:50:45.417Z,7.25
2022-11-27T12:53:42.868Z,7.26
2022-11-27T12:56:18.575Z,7.24
2022-11-27T12:58:50.938Z,7.21
2022-11-27T13:01:26.781Z,7.22
2022-11-27T13:04:15.376Z,7.18
2022-11-27T13:07:03.317Z,7.13
2022-11-27T13:10:02.796Z,7.04
2022-11-27T13:12:37.595Z,6.90
2022-11-27T13:15:15.332Z,6.92
2022-11-27T13:17:44.430Z,6.86
2022-11-27T13:20:23.884Z,6.96
2022-11-27T13:22:50.999Z,6.97
2022-11-27T13:25:17.606Z,7.05
2022-11-27T13:27:49.220Z,6.96
2022-11-27T13:30:31.790Z,6.88
2022-11-27T13:33:03.631Z,6.78
2022-11-27T13:35:38.311Z,6.73
2022-11-27T13:38:10.849Z,6.59
2022-11-27T13:41:00.156Z,6.53
2022-11-27T13:43:43.258Z,6.38
2022-11-27T13:46:25.026Z,6.47
2022-11-27T13:49:03.665Z,6.49
2022-11-27T13:51:33.894Z,6.42
2022-11-27T13:54:12.038Z,6.49
2022-11-27T13:56:39.576Z,6.41
2022-11-27T13:59:16.757Z,6.28
2022-11-27T14:01:53.620Z,6.36
2022-11-27T14:04:20.197Z,6.22
2022-11-27T14:06:54.234Z,6.26
2022-11-27T14:09:42.557Z,6.29
2022-11-27T14:12:15.084Z,6.10
2022-11-27T14:14:43.695Z,6.09
2022-11-27T14:17:37.265Z,6.08
2022-11-27T14:20:23.397Z,6.00
2022-11-27T14:23:12.916Z,6.06
2022-11-27T14:25:41.240Z,5.97
2022-11-27T14:28:21.797Z,5.95
2022-11-27T14:30:52.853Z,5.97
2022-11-27T14:33:22.927Z,6.00
2022-11-27T14:35:55.783Z,5.95
2022-11-27T14:38:24.119Z,5.86
2022-11-27T14:40:55.783Z,5.94
2022-11-27T14:43:25.916Z,6.01
2022-11-27T14:45:55.932Z,5.97
2022-11-27T14:48:41.518Z,5.99
2022-11-27T14:51:14.020Z,5.86
2022-11-27T14:53:41.243Z,5.88
2022-11-27T14:56:08.069Z,5.75
2022-11-27T14:58:35.166Z,5.69
2022-11-27T15:01:05.639Z,5.71
2022-11-27T15:03:33.289Z,5.67
2022-11-27T15:06:05.710Z,5.71
2022-11-27T15:08:36.236Z,5.86
2022-11-27T15:11:05.236Z,5.84
2022-11-27T15:13:37.240Z,5.73
2022-11-27T15:16:07.374Z,5.76
2022-11-27T15:18:37.089Z,5.82
2022-11-27T15:21:17.628Z,5.83
2022-11-27T15:23:46.723Z,5.82
2022-11-27T15:26:25.714Z,5.84
2022-11-27T15:28:58.964Z,5.75
2022-11-27T15:31:30.101Z,5.63
2022-11-27T15:34:15.348Z,5.61
2022-11-27T15:36:44.128Z,5.58
2022-11-27T15:39:24.655Z,5.57
2022-11-27T15:42:02.357Z,5.50
2022-11-27T15:44:32.393Z,5.56
2022-11-27T15:47:01.479Z,5.49
2022-11-27T15:49:28.780Z,5.42
2022-11-27T15:51:56.614Z,5.44
2022-11-27T15:54:24.113Z,5.33
2022-11-27T15:56:50.799Z,5.38
2022-11-27T15:59:20.372Z,5.45
2022-11-27T16:01:47.001Z,5.27
2022-11-27T16:04:13.472Z,5.32
2022-11-27T16:06:40.077Z,5.24
2022-11-27T16:09:06.673Z,5.21
2022-11-27T16:11:33.139Z,5.17
2022-11-27T16:13:59.703Z,5.10
2022-11-27T16:16:26.745Z,5.02
2022-11-27T16:18:56.970Z,5.14
2022-11-27T16:21:29.242Z,5.03
2022-11-27T16:24:03.536Z,5.09
2022-11-27T16:26:30.946Z,5.05
2022-11-27T16:28:57.984Z,5.04
2022-11-27T16:31:26.493Z,5.09
2022-11-27T16:33:53.129Z,5.11
2022-11-27T16:36:22.971Z,5.19
2022-11-27T16:38:52.423Z,5.23
2022-11-27T16:41:19.285Z,5.25
2022-11-27T16:43:48.861Z,5.21
2022-11-27T16:46:26.192Z,5.19
2022-11-27T16:48:54.301Z,5.24
2022-11-27T16:51:32.171Z,5.21
2022-11-27T16:54:04.757Z,4.96
2022-11-27T16:56:32.718Z,5.21
2022-11-27T16:59:03.131Z,5.25
2022-11-27T17:01:36.687Z,5.23
2022-11-27T17:04:09.124Z,5.18
2022-11-27T17:06:37.976Z,5.15
2022-11-27T17:09:07.467Z,5.11
2022-11-27T17:11:35.923Z,4.97
2022-11-27T17:14:06.807Z,5.09
2022-11-27T17:16:35.372Z,5.15
2022-11-27T17:19:03.638Z,5.05
2022-11-27T17:21:33.359Z,4.94
2022-11-27T17:24:02.167Z,4.88
2022-11-27T17:26:35.107Z,4.97
2022-11-27T17:29:03.356Z,4.95
2022-11-27T17:31:37.005Z,4.85
2022-11-27T17:34:05.165Z,4.92
2022-11-27T17:36:37.144Z,4.80
2022-11-27T17:39:06.910Z,4.84
2022-11-27T17:41:34.569Z,4.79
2022-11-27T17:44:04.218Z,4.75
2022-11-27T17:46:32.291Z,4.82
2022-11-27T17:49:00.261Z,4.70
2022-11-27T17:51:30.183Z,4.84
2022-11-27T17:54:01.741Z,4.75
2022-11-27T17:56:31.109Z,4.68
2022-11-27T17:58:59.708Z,4.68
2022-11-27T18:01:29.003Z,4.76
2022-11-27T18:03:59.737Z,4.58
2022-11-27T18:06:27.188Z,4.64
2022-11-27T18:08:55.825Z,4.71
2022-11-27T18:11:27.740Z,4.64
2022-11-27T18:13:56.128Z,4.90
2022-11-27T18:16:31.731Z,5.45
2022-11-27T18:19:01.819Z,5.85
2022-11-27T18:21:28.613Z,5.98
2022-11-27T18:29:28.772Z,6.09
2022-11-27T18:31:55.314Z,5.96
2022-11-27T18:34:21.799Z,5.64
2022-11-27T18:36:48.240Z,5.42
2022-11-27T18:39:15.093Z,5.34
2022-11-27T18:41:41.558Z,5.29
2022-11-27T18:44:10.073Z,5.25
2022-11-27T18:46:38.250Z,5.19
2022-11-27T18:49:05.463Z,5.13
2022-11-27T18:51:32.271Z,5.04
2022-11-27T18:53:58.873Z,5.09
2022-11-27T18:56:28.480Z,5.14
2022-11-27T18:58:55.869Z,5.11
2022-11-27T19:01:27.878Z,5.07
2022-11-27T19:03:55.403Z,5.15
2022-11-27T19:06:26.402Z,5.11
2022-11-27T19:08:52.921Z,4.95
2022-11-27T19:11:22.132Z,5.00
2022-11-27T19:13:49.969Z,5.02
2022-11-27T19:16:29.723Z,5.07
2022-11-27T19:19:01.346Z,5.16
2022-11-27T19:21:30.481Z,5.17
2022-11-27T19:23:59.176Z,5.18
2022-11-27T19:26:28.368Z,5.12
2022-11-27T19:28:57.004Z,5.12
2022-11-27T19:31:25.579Z,5.00
2022-11-27T19:34:00.370Z,5.04
2022-11-27T19:36:32.289Z,5.05
2022-11-27T19:39:01.827Z,5.02
2022-11-27T19:41:30.695Z,5.02
2022-11-27T19:44:01.225Z,5.01
2022-11-27T19:46:29.848Z,5.02
2022-11-27T19:49:01.484Z,4.95
2022-11-27T19:51:31.924Z,4.96
2022-11-27T19:54:01.801Z,4.93
2022-11-27T19:56:33.497Z,4.95
2022-11-27T19:59:02.110Z,4.88
2022-11-27T20:01:29.199Z,4.91
2022-11-27T20:03:55.871Z,4.86
2022-11-27T20:06:26.145Z,4.88
2022-11-27T20:08:57.321Z,4.78
2022-11-27T20:11:26.662Z,4.71
2022-11-27T20:13:59.616Z,4.68
2022-11-27T20:16:27.466Z,4.65
2022-11-27T20:18:54.657Z,4.63
2022-11-27T20:21:25.152Z,4.76
2022-11-27T20:23:52.710Z,4.81
2022-11-27T20:26:22.275Z,4.67
2022-11-27T20:28:49.941Z,4.62
2022-11-27T20:31:25.765Z,4.64
2022-11-27T20:33:56.600Z,4.60
2022-11-27T20:36:24.909Z,4.65
2022-11-27T20:38:52.106Z,4.68
2022-11-27T20:41:21.025Z,4.66
2022-11-27T20:43:50.655Z,4.62
2022-11-27T20:46:17.972Z,4.71
2022-11-27T20:48:52.831Z,4.66
2022-11-27T20:51:22.795Z,4.58
2022-11-27T20:53:49.939Z,4.66
2022-11-27T20:56:19.546Z,4.71
2022-11-27T20:58:47.461Z,4.77
2022-11-27T21:01:22.900Z,4.82
2022-11-27T21:03:51.378Z,4.71
2022-11-27T21:06:20.714Z,4.85
2022-11-27T21:08:48.579Z,4.94
2022-11-27T21:11:18.513Z,4.92
2022-11-27T21:13:45.111Z,4.85
2022-11-27T21:16:14.293Z,4.76
2022-11-27T21:18:41.102Z,4.67
2022-11-27T21:21:09.492Z,4.81
2022-11-27T21:23:37.907Z,4.92
2022-11-27T21:26:05.885Z,4.82
2022-11-27T21:28:33.016Z,4.74
2022-11-27T21:31:07.684Z,4.55
2022-11-27T21:33:35.704Z,4.80
2022-11-27T21:36:03.240Z,4.82
2022-11-27T21:38:29.949Z,4.81
2022-11-27T21:40:57.195Z,4.76
2022-11-27T21:43:23.733Z,4.82
2022-11-27T21:45:51.119Z,4.85
2022-11-27T21:48:18.333Z,4.75
2022-11-27T21:50:44.861Z,4.85
2022-11-27T21:53:11.402Z,4.89
2022-11-27T21:55:42.240Z,4.93
2022-11-27T21:58:08.973Z,4.96
2022-11-27T22:00:36.771Z,4.95
2022-11-27T22:03:03.410Z,4.99
2022-11-27T22:05:30.024Z,5.01
2022-11-27T22:07:56.550Z,4.78
2022-11-27T22:10:23.028Z,4.82
2022-11-27T22:12:49.565Z,4.71
2022-11-27T22:15:16.201Z,4.79
2022-11-27T22:17:42.628Z,4.61
2022-11-27T22:20:09.371Z,4.70
2022-11-27T22:22:35.868Z,4.68
2022-11-27T22:25:04.520Z,4.71
2022-11-27T22:27:31.153Z,4.76
2022-11-27T22:29:57.574Z,4.84
2022-11-27T22:32:23.979Z,4.79
2022-11-27T22:34:51.043Z,4.88
2022-11-27T22:37:17.620Z,4.88
2022-11-27T22:39:44.448Z,4.91
2022-11-27T22:42:12.165Z,4.85
2022-11-27T22:44:39.119Z,4.77
2022-11-27T22:47:05.881Z,4.81
2022-11-27T22:49:32.539Z,4.81
2022-11-27T22:51:59.272Z,4.80
2022-11-27T22:54:25.795Z,4.73
2022-11-27T22:56:54.020Z,4.64
2022-11-27T22:59:36.834Z,4.73
2022-11-27T23:02:05.285Z,4.62
2022-11-27T23:04:33.377Z,4.67
2022-11-27T23:07:00.228Z,4.69
2022-11-27T23:09:28.404Z,4.63
2022-11-27T23:11:56.363Z,4.64
2022-11-27T23:14:23.997Z,4.66
2022-11-27T23:16:50.492Z,4.69
2022-11-27T23:19:17.345Z,4.60
2022-11-27T23:21:44.389Z,4.52
2022-11-27T23:24:15.139Z,4.54
2022-11-27T23:26:42.778Z,4.39
2022-11-27T23:29:09.287Z,4.32
2022-11-27T23:31:36.418Z,4.45
2022-11-27T23:34:07.356Z,4.39
2022-11-27T23:36:34.847Z,4.34
2022-11-27T23:39:03.057Z,4.44
2022-11-27T23:41:29.987Z,4.43
2022-11-27T23:43:56.978Z,4.46
2022-11-27T23:46:26.661Z,4.36
2022-11-27T23:48:54.938Z,4.39
2022-11-27T23:51:25.756Z,4.36
2022-11-27T23:53:53.180Z,4.35
2022-11-27T23:56:22.569Z,4.23
2022-11-27T23:58:49.391Z,4.24
